Time;durP1;ratioP1;P1;durP2;ratioP2;P2;SDS_P1;SDS_P2;PMS_P1;PMS_P2;Temp;Humidity;BMP_temperature;BMP_pressure;BME280_temperature;BME280_humidity;BME280_pressure;Samples;Min_cycle;Max_cycle;Signal;HPM_P1;HPM_P2
2022/10/29 00:01:19;;;;;;;26.33;10.90;;;;;;;;;;4917002;29;20054;-68
2022/10/29 00:04:24;;;;;;;18.65;9.20;;;;;;;;;;4917124;29;20432;-68
2022/10/29 00:07:28;;;;;;;29.23;10.73;;;;;;;;;;4916876;29;20063;-68
2022/10/29 00:10:32;;;;;;;23.23;8.98;;;;;;;;;;4916840;29;20043;-68
2022/10/29 00:13:37;;;;;;;22.50;8.55;;;;;;;;;;4916580;29;20051;-68
2022/10/29 00:16:41;;;;;;;21.58;9.52;;;;;;;;;;4916630;29;20059;-68
2022/10/29 00:19:46;;;;;;;21.85;9.98;;;;;;;;;;4916764;29;20047;-68
2022/10/29 00:22:53;;;;;;;21.83;9.38;;;;;;;;;;4916648;29;20059;-68
2022/10/29 00:25:57;;;;;;;24.77;9.05;;;;;;;;;;4916737;29;20067;-68
2022/10/29 00:29:01;;;;;;;19.80;8.77;;;;;;;;;;4916604;29;20074;-68
2022/10/29 00:32:06;;;;;;;24.70;8.98;;;;;;;;;;4915540;29;20655;-68
2022/10/29 00:35:10;;;;;;;21.00;9.15;;;;;;;;;;4916440;29;20066;-68
2022/10/29 00:38:14;;;;;;;22.40;8.75;;;;;;;;;;4916398;29;20047;-68
2022/10/29 00:41:20;;;;;;;22.20;8.10;;;;;;;;;;4916024;29;20047;-68
2022/10/29 00:44:27;;;;;;;27.52;8.93;;;;;;;;;;4916308;29;20559;-68
2022/10/29 00:47:33;;;;;;;29.85;10.45;;;;;;;;;;4916104;29;20047;-68
2022/10/29 00:50:37;;;;;;;30.25;9.27;;;;;;;;;;4916181;29;20063;-68
2022/10/29 00:54:05;;;;;;;28.13;10.05;;;;;;;;;;4915777;29;20583;-68
2022/10/29 00:57:11;;;;;;;25.02;9.77;;;;;;;;;;4915938;29;20055;-69
2022/10/29 01:00:17;;;;;;;28.75;9.70;;;;;;;;;;4916114;29;20495;-68
2022/10/29 01:03:21;;;;;;;21.95;9.57;;;;;;;;;;4916087;29;20067;-69
2022/10/29 01:06:26;;;;;;;19.33;8.40;;;;;;;;;;4916169;29;20492;-68
2022/10/29 01:09:30;;;;;;;24.48;9.27;;;;;;;;;;4915206;29;20047;-68
2022/10/29 01:12:53;;;;;;;30.05;9.60;;;;;;;;;;4915808;29;20039;-68
2022/10/29 01:16:02;;;;;;;24.48;9.55;;;;;;;;;;4915669;29;20047;-68
2022/10/29 01:19:24;;;;;;;28.67;9.63;;;;;;;;;;4916072;29;20087;-67
2022/10/29 01:22:39;;;;;;;22.65;10.15;;;;;;;;;;4915437;29;20059;-67
2022/10/29 01:25:44;;;;;;;19.27;9.48;;;;;;;;;;4915393;29;20064;-67
2022/10/29 01:29:07;;;;;;;21.73;10.05;;;;;;;;;;4915697;29;20400;-68
2022/10/29 01:32:17;;;;;;;20.60;10.13;;;;;;;;;;4915561;29;20055;-68
2022/10/29 01:35:30;;;;;;;21.47;9.80;;;;;;;;;;4915158;29;20043;-68
2022/10/29 01:38:38;;;;;;;22.73;9.43;;;;;;;;;;4915873;29;20299;-68
2022/10/29 01:41:54;;;;;;;22.60;9.60;;;;;;;;;;4915607;29;20043;-68
2022/10/29 01:45:03;;;;;;;17.88;9.43;;;;;;;;;;4915301;29;20051;-69
2022/10/29 01:48:09;;;;;;;15.60;9.07;;;;;;;;;;4915029;29;20055;-68
2022/10/29 01:51:17;;;;;;;26.23;10.82;;;;;;;;;;4915409;29;20055;-68
2022/10/29 01:54:22;;;;;;;22.70;10.35;;;;;;;;;;4914632;29;20051;-68
2022/10/29 01:57:27;;;;;;;20.75;9.38;;;;;;;;;;4914982;29;20067;-68
2022/10/29 02:00:47;;;;;;;23.80;9.77;;;;;;;;;;4915121;29;20109;-68
2022/10/29 02:03:57;;;;;;;23.27;9.70;;;;;;;;;;4914814;29;20051;-68
2022/10/29 02:07:19;;;;;;;17.75;10.02;;;;;;;;;;4915247;29;20043;-68
2022/10/29 02:10:46;;;;;;;26.33;10.10;;;;;;;;;;4915266;29;20125;-68
2022/10/29 02:13:59;;;;;;;21.80;9.35;;;;;;;;;;4914839;29;20059;-69
2022/10/29 02:17:03;;;;;;;22.60;9.68;;;;;;;;;;4914935;29;20519;-67
2022/10/29 02:20:09;;;;;;;17.67;9.45;;;;;;;;;;4917289;29;20414;-67
2022/10/29 02:23:14;;;;;;;20.02;9.10;;;;;;;;;;4917678;29;20051;-67
2022/10/29 02:26:18;;;;;;;22.80;8.90;;;;;;;;;;4918897;29;20047;-68
2022/10/29 02:29:22;;;;;;;22.02;9.40;;;;;;;;;;4918912;29;20047;-67
2022/10/29 02:32:27;;;;;;;21.40;9.50;;;;;;;;;;4918737;29;20040;-68
2022/10/29 02:35:31;;;;;;;23.63;9.73;;;;;;;;;;4919813;29;20507;-68
2022/10/29 02:38:35;;;;;;;15.27;9.23;;;;;;;;;;4919137;29;20407;-68
2022/10/29 02:41:40;;;;;;;21.13;8.38;;;;;;;;;;4918995;29;20051;-68
2022/10/29 02:44:44;;;;;;;17.55;9.18;;;;;;;;;;4919130;29;20047;-68
2022/10/29 02:47:48;;;;;;;27.33;9.50;;;;;;;;;;4918698;29;20039;-67
2022/10/29 02:50:52;;;;;;;18.95;9.30;;;;;;;;;;4920176;29;20051;-68
2022/10/29 02:53:57;;;;;;;18.20;8.63;;;;;;;;;;4919837;29;20047;-67
2022/10/29 02:57:01;;;;;;;21.52;8.98;;;;;;;;;;4919282;29;20063;-68
2022/10/29 03:00:06;;;;;;;18.55;9.43;;;;;;;;;;4919602;29;20047;-67
2022/10/29 03:03:10;;;;;;;22.10;9.05;;;;;;;;;;4919599;29;20554;-68
2022/10/29 03:06:16;;;;;;;24.95;9.00;;;;;;;;;;4918809;29;20402;-68
2022/10/29 03:09:20;;;;;;;17.55;8.57;;;;;;;;;;4918468;29;20047;-68
2022/10/29 03:12:25;;;;;;;23.23;9.73;;;;;;;;;;4919280;29;20401;-68
2022/10/29 03:15:29;;;;;;;21.85;9.38;;;;;;;;;;4917155;29;20047;-67
2022/10/29 03:18:34;;;;;;;25.17;9.38;;;;;;;;;;4917558;29;20047;-68
2022/10/29 03:21:38;;;;;;;19.38;8.60;;;;;;;;;;4917544;29;20043;-68
2022/10/29 03:24:42;;;;;;;21.95;8.52;;;;;;;;;;4917676;29;20416;-68
2022/10/29 03:27:47;;;;;;;20.80;8.48;;;;;;;;;;4917669;29;20047;-68
2022/10/29 03:30:51;;;;;;;20.75;8.45;;;;;;;;;;4916598;29;20047;-66
2022/10/29 03:33:55;;;;;;;20.80;8.10;;;;;;;;;;4918789;29;20056;-68
2022/10/29 03:36:59;;;;;;;16.80;7.53;;;;;;;;;;4918481;29;20416;-68
2022/10/29 03:40:04;;;;;;;17.13;7.85;;;;;;;;;;4919105;29;20043;-69
2022/10/29 03:43:09;;;;;;;17.20;7.88;;;;;;;;;;4918498;29;20051;-69
2022/10/29 03:46:15;;;;;;;22.30;8.80;;;;;;;;;;4917759;29;20067;-68
2022/10/29 03:49:20;;;;;;;19.80;9.10;;;;;;;;;;4917823;29;20079;-68
2022/10/29 03:52:24;;;;;;;22.02;9.00;;;;;;;;;;4918069;29;20055;-68
2022/10/29 03:55:28;;;;;;;19.05;9.30;;;;;;;;;;4918099;29;20039;-68
2022/10/29 03:58:32;;;;;;;15.05;8.18;;;;;;;;;;4918303;29;20051;-68
2022/10/29 04:01:38;;;;;;;18.98;8.00;;;;;;;;;;4916949;29;20036;-68
2022/10/29 04:04:42;;;;;;;19.98;8.45;;;;;;;;;;4917164;29;20051;-68
2022/10/29 04:07:46;;;;;;;24.35;9.02;;;;;;;;;;4917054;29;20051;-69
2022/10/29 04:10:51;;;;;;;21.23;9.40;;;;;;;;;;4917574;29;20060;-68
2022/10/29 04:13:55;;;;;;;19.30;8.88;;;;;;;;;;4917630;29;20597;-67
2022/10/29 04:17:00;;;;;;;33.40;9.85;;;;;;;;;;4916424;29;20058;-67
2022/10/29 04:20:04;;;;;;;20.45;8.98;;;;;;;;;;4917435;29;20048;-67
2022/10/29 04:23:09;;;;;;;28.25;9.00;;;;;;;;;;4917296;29;20059;-67
2022/10/29 04:26:13;;;;;;;12.13;7.07;;;;;;;;;;4917730;29;20043;-66
2022/10/29 04:29:18;;;;;;;25.52;8.07;;;;;;;;;;4917495;29;20044;-67
2022/10/29 04:32:22;;;;;;;23.38;7.70;;;;;;;;;;4917016;29;20059;-67
2022/10/29 04:35:27;;;;;;;15.95;7.20;;;;;;;;;;4916232;29;20043;-67
2022/10/29 04:38:31;;;;;;;13.38;6.00;;;;;;;;;;4916161;29;20047;-68
2022/10/29 04:41:36;;;;;;;14.15;6.35;;;;;;;;;;4915958;29;20051;-67
2022/10/29 04:44:41;;;;;;;16.27;7.65;;;;;;;;;;4916382;29;20051;-67
2022/10/29 04:47:45;;;;;;;16.75;7.32;;;;;;;;;;4916221;29;20055;-67
2022/10/29 04:50:49;;;;;;;15.15;7.15;;;;;;;;;;4916532;29;20075;-67
2022/10/29 04:53:54;;;;;;;16.92;7.88;;;;;;;;;;4917209;29;20047;-67
2022/10/29 04:56:59;;;;;;;27.08;9.00;;;;;;;;;;4915616;29;20062;-67
2022/10/29 05:00:05;;;;;;;30.05;9.32;;;;;;;;;;4917183;29;20051;-67
2022/10/29 05:03:09;;;;;;;20.85;7.97;;;;;;;;;;4916101;29;20400;-67
2022/10/29 05:06:13;;;;;;;21.10;8.45;;;;;;;;;;4915990;29;20039;-67
2022/10/29 05:09:18;;;;;;;21.92;7.90;;;;;;;;;;4915981;29;20500;-66
2022/10/29 05:12:22;;;;;;;19.38;7.38;;;;;;;;;;4917431;29;20043;-67
2022/10/29 05:15:27;;;;;;;23.65;8.55;;;;;;;;;;4915906;29;20059;-67
2022/10/29 05:18:31;;;;;;;19.20;7.68;;;;;;;;;;4915029;29;20051;-67
2022/10/29 05:21:36;;;;;;;23.38;8.13;;;;;;;;;;4918335;29;20044;-68
2022/10/29 05:24:42;;;;;;;22.75;8.43;;;;;;;;;;4918749;29;20035;-67
2022/10/29 05:27:47;;;;;;;18.23;9.95;;;;;;;;;;4917281;29;20051;-67
2022/10/29 05:30:52;;;;;;;23.58;9.70;;;;;;;;;;4915544;29;20046;-68
2022/10/29 05:33:57;;;;;;;26.52;10.07;;;;;;;;;;4915535;29;20047;-67
2022/10/29 05:37:01;;;;;;;19.48;10.77;;;;;;;;;;4915442;29;20055;-68
2022/10/29 05:40:06;;;;;;;18.35;8.55;;;;;;;;;;4904029;29;20043;-68
2022/10/29 05:43:11;;;;;;;20.38;9.13;;;;;;;;;;4919850;29;20051;-78
2022/10/29 05:46:15;;;;;;;24.50;9.18;;;;;;;;;;4923631;29;20043;-74
2022/10/29 05:49:20;;;;;;;34.45;11.40;;;;;;;;;;4920911;29;20055;-75
2022/10/29 05:52:24;;;;;;;24.60;12.13;;;;;;;;;;4922259;29;20051;-74
2022/10/29 05:55:29;;;;;;;23.08;11.85;;;;;;;;;;4917633;29;20047;-74
2022/10/29 05:58:34;;;;;;;26.45;11.35;;;;;;;;;;4915920;29;20055;-75
2022/10/29 06:01:38;;;;;;;21.67;11.15;;;;;;;;;;4915463;29;20047;-75
2022/10/29 06:04:42;;;;;;;23.80;10.07;;;;;;;;;;4915643;29;20051;-73
2022/10/29 06:07:52;;;;;;;27.33;11.43;;;;;;;;;;4915501;29;20044;-74
2022/10/29 06:10:56;;;;;;;41.30;15.35;;;;;;;;;;4915345;29;20051;-75
2022/10/29 06:14:00;;;;;;;38.15;14.25;;;;;;;;;;4915471;29;20051;-76
2022/10/29 06:17:04;;;;;;;39.42;13.75;;;;;;;;;;4916180;29;20059;-78
2022/10/29 06:20:09;;;;;;;45.40;13.88;;;;;;;;;;4916460;29;20043;-76
2022/10/29 06:23:13;;;;;;;29.75;14.27;;;;;;;;;;4918401;29;20073;-76
2022/10/29 06:26:18;;;;;;;33.53;15.52;;;;;;;;;;4916167;29;20055;-76
2022/10/29 06:29:22;;;;;;;32.10;15.38;;;;;;;;;;4915610;29;20144;-72
2022/10/29 06:32:26;;;;;;;32.20;13.75;;;;;;;;;;4915096;29;20043;-74
2022/10/29 06:35:31;;;;;;;30.05;12.52;;;;;;;;;;4916143;29;20047;-82
2022/10/29 06:38:35;;;;;;;42.17;15.35;;;;;;;;;;4904117;29;20519;-77
2022/10/29 06:41:39;;;;;;;32.40;13.40;;;;;;;;;;4914828;29;20043;-73
2022/10/29 06:44:44;;;;;;;32.47;12.98;;;;;;;;;;4917278;29;20063;-78
2022/10/29 06:47:48;;;;;;;36.95;13.02;;;;;;;;;;4915274;29;20044;-76
2022/10/29 06:50:53;;;;;;;23.25;10.65;;;;;;;;;;4919147;29;20059;-77
2022/10/29 06:53:57;;;;;;;27.35;11.75;;;;;;;;;;4915690;29;20067;-79
2022/10/29 06:57:01;;;;;;;30.17;10.68;;;;;;;;;;4916334;29;20043;-79
2022/10/29 07:00:06;;;;;;;24.45;10.15;;;;;;;;;;4915203;29;20047;-76
2022/10/29 07:03:12;;;;;;;21.98;9.95;;;;;;;;;;4917263;29;20051;-73
2022/10/29 07:06:16;;;;;;;20.00;9.32;;;;;;;;;;4918379;29;20129;-77
2022/10/29 07:09:21;;;;;;;20.35;10.35;;;;;;;;;;4919076;29;20047;-73
2022/10/29 07:12:25;;;;;;;22.00;9.38;;;;;;;;;;4919209;29;20047;-71
2022/10/29 07:15:29;;;;;;;21.13;8.48;;;;;;;;;;4918160;29;20047;-74
2022/10/29 07:18:34;;;;;;;15.02;7.50;;;;;;;;;;4919970;29;20055;-73
2022/10/29 07:21:38;;;;;;;18.88;8.23;;;;;;;;;;4918548;29;20051;-70
2022/10/29 07:24:42;;;;;;;23.23;8.95;;;;;;;;;;4918652;29;20043;-71
2022/10/29 07:27:47;;;;;;;16.95;8.57;;;;;;;;;;4918471;29;20047;-74
2022/10/29 07:30:51;;;;;;;21.98;8.40;;;;;;;;;;4908669;29;20078;-73
2022/10/29 07:33:56;;;;;;;18.00;9.07;;;;;;;;;;4918006;29;20043;-76
2022/10/29 07:37:00;;;;;;;23.55;8.88;;;;;;;;;;4919628;29;20063;-72
2022/10/29 07:40:05;;;;;;;23.95;9.07;;;;;;;;;;4918179;29;20051;-74
2022/10/29 07:43:09;;;;;;;22.48;8.60;;;;;;;;;;4921432;29;20153;-74
2022/10/29 07:46:13;;;;;;;14.30;8.38;;;;;;;;;;4919861;29;20036;-73
2022/10/29 07:49:18;;;;;;;19.30;7.90;;;;;;;;;;4918115;29;20063;-74
2022/10/29 07:52:22;;;;;;;19.40;7.95;;;;;;;;;;4918473;29;20043;-74
2022/10/29 07:55:28;;;;;;;17.92;6.95;;;;;;;;;;4918901;29;20055;-74
2022/10/29 07:58:32;;;;;;;16.75;7.47;;;;;;;;;;4916739;29;20051;-73
2022/10/29 08:01:36;;;;;;;19.35;7.65;;;;;;;;;;4916536;29;20507;-75
2022/10/29 08:04:41;;;;;;;15.27;7.78;;;;;;;;;;4918331;29;20043;-75
2022/10/29 08:08:05;;;;;;;15.85;7.30;;;;;;;;;;4917841;29;20051;-76
2022/10/29 08:11:09;;;;;;;12.57;6.70;;;;;;;;;;4917762;29;20519;-71
2022/10/29 08:14:14;;;;;;;12.15;6.55;;;;;;;;;;4918605;29;20392;-72
2022/10/29 08:17:19;;;;;;;11.52;7.03;;;;;;;;;;4916554;29;20146;-71
2022/10/29 08:20:26;;;;;;;19.27;7.40;;;;;;;;;;4917882;29;20059;-75
2022/10/29 08:23:30;;;;;;;14.32;7.95;;;;;;;;;;4917431;29;20055;-74
2022/10/29 08:26:34;;;;;;;23.10;7.90;;;;;;;;;;4918554;29;20055;-79
2022/10/29 08:29:39;;;;;;;18.70;7.93;;;;;;;;;;4917872;29;20060;-80
2022/10/29 08:32:46;;;;;;;20.80;7.10;;;;;;;;;;4918413;29;20051;-76
2022/10/29 08:35:53;;;;;;;14.65;6.53;;;;;;;;;;4916223;29;20051;-74
2022/10/29 08:38:58;;;;;;;16.70;7.32;;;;;;;;;;4916956;29;20043;-74
2022/10/29 08:42:17;;;;;;;14.52;7.25;;;;;;;;;;4917111;29;20047;-78
2022/10/29 08:45:27;;;;;;;18.35;6.38;;;;;;;;;;4917907;29;20420;-71
2022/10/29 08:48:43;;;;;;;17.42;6.95;;;;;;;;;;4917449;29;20047;-75
2022/10/29 08:51:50;;;;;;;15.95;6.75;;;;;;;;;;4917005;29;20039;-72
2022/10/29 08:55:14;;;;;;;10.00;5.03;;;;;;;;;;4920861;29;20047;-74
2022/10/29 08:58:19;;;;;;;10.23;5.30;;;;;;;;;;4919154;29;20529;-71
2022/10/29 09:01:25;;;;;;;9.27;4.93;;;;;;;;;;4920520;29;20495;-74
2022/10/29 09:04:33;;;;;;;10.30;5.47;;;;;;;;;;4920873;29;20044;-75
2022/10/29 09:07:38;;;;;;;15.43;5.80;;;;;;;;;;4920297;29;20051;-77
2022/10/29 09:10:48;;;;;;;11.60;4.63;;;;;;;;;;4920492;29;20118;-75
2022/10/29 09:14:02;;;;;;;9.00;5.38;;;;;;;;;;4917334;29;20047;-77
2022/10/29 09:17:22;;;;;;;10.05;4.63;;;;;;;;;;4916823;29;20382;-74
2022/10/29 09:20:26;;;;;;;11.68;4.88;;;;;;;;;;4916285;29;20404;-76
2022/10/29 09:23:37;;;;;;;9.95;4.38;;;;;;;;;;4907472;29;20207;-76
2022/10/29 09:26:50;;;;;;;14.88;5.50;;;;;;;;;;4917787;29;20541;-74
2022/10/29 09:30:06;;;;;;;14.82;5.13;;;;;;;;;;4917853;29;20046;-76
2022/10/29 09:33:13;;;;;;;14.70;4.75;;;;;;;;;;4918565;29;20058;-74
2022/10/29 09:36:19;;;;;;;10.57;4.53;;;;;;;;;;4917438;29;20043;-75
2022/10/29 09:39:37;;;;;;;7.13;4.35;;;;;;;;;;4917367;29;20044;-74
2022/10/29 09:42:43;;;;;;;11.73;4.45;;;;;;;;;;4916895;29;20048;-74
2022/10/29 09:45:50;;;;;;;15.95;9.13;;;;;;;;;;4916864;29;20405;-74
2022/10/29 09:49:13;;;;;;;10.23;5.80;;;;;;;;;;4917582;29;20080;-73
2022/10/29 09:52:22;;;;;;;9.45;4.72;;;;;;;;;;4918842;29;20043;-74
2022/10/29 09:55:27;;;;;;;6.85;3.58;;;;;;;;;;4919034;29;20044;-76
2022/10/29 09:58:35;;;;;;;9.25;4.55;;;;;;;;;;4920098;29;20087;-75
2022/10/29 10:01:40;;;;;;;7.25;3.65;;;;;;;;;;4919638;29;20029;-74
2022/10/29 10:04:47;;;;;;;7.80;4.35;;;;;;;;;;4918056;29;20044;-74
2022/10/29 10:08:05;;;;;;;9.52;4.60;;;;;;;;;;4918115;29;20040;-75
2022/10/29 10:11:18;;;;;;;7.60;4.30;;;;;;;;;;4916730;29;20048;-74
2022/10/29 10:14:23;;;;;;;7.57;3.65;;;;;;;;;;4917106;29;20044;-75
2022/10/29 10:17:28;;;;;;;6.45;3.78;;;;;;;;;;4916894;29;20060;-74
2022/10/29 10:20:35;;;;;;;8.73;4.32;;;;;;;;;;4917191;29;20044;-74
2022/10/29 10:23:53;;;;;;;10.10;4.30;;;;;;;;;;4916626;29;20385;-74
2022/10/29 10:26:57;;;;;;;9.60;4.25;;;;;;;;;;4916187;29;20600;-74
2022/10/29 10:30:04;;;;;;;11.55;4.35;;;;;;;;;;4915710;29;20044;-76
2022/10/29 10:33:29;;;;;;;6.35;3.85;;;;;;;;;;4916649;29;20052;-76
2022/10/29 10:36:37;;;;;;;7.22;3.75;;;;;;;;;;4916819;29;20032;-81
2022/10/29 10:39:51;;;;;;;7.13;3.83;;;;;;;;;;4917924;29;20044;-76
2022/10/29 10:42:56;;;;;;;6.22;3.50;;;;;;;;;;4923585;29;20048;-74
2022/10/29 10:46:03;;;;;;;13.27;3.78;;;;;;;;;;4922608;29;20044;-74
2022/10/29 10:49:11;;;;;;;5.13;3.10;;;;;;;;;;4919443;29;20400;-75
2022/10/29 10:52:27;;;;;;;5.70;3.53;;;;;;;;;;4918729;29;20048;-76
2022/10/29 10:55:37;;;;;;;9.35;3.78;;;;;;;;;;4919172;29;20044;-76
2022/10/29 10:58:44;;;;;;;7.47;3.22;;;;;;;;;;4920023;29;20052;-75
2022/10/29 11:01:50;;;;;;;7.63;3.80;;;;;;;;;;4919550;29;20040;-76
2022/10/29 11:04:59;;;;;;;8.80;3.80;;;;;;;;;;4919380;29;20056;-75
2022/10/29 11:08:16;;;;;;;6.97;3.90;;;;;;;;;;4919578;29;20036;-76
2022/10/29 11:11:26;;;;;;;6.72;3.90;;;;;;;;;;4918872;29;20048;-78
2022/10/29 11:14:37;;;;;;;10.32;4.25;;;;;;;;;;4918805;29;20397;-76
2022/10/29 11:17:53;;;;;;;8.90;3.90;;;;;;;;;;4918902;29;20047;-74
2022/10/29 11:21:17;;;;;;;6.03;3.80;;;;;;;;;;4918390;29;20048;-75
2022/10/29 11:24:25;;;;;;;7.07;4.05;;;;;;;;;;4926008;29;20044;-75
2022/10/29 11:27:31;;;;;;;9.32;4.53;;;;;;;;;;4918764;29;20052;-74
2022/10/29 11:30:42;;;;;;;8.10;4.00;;;;;;;;;;4919337;29;20174;-75
2022/10/29 11:33:57;;;;;;;8.38;3.60;;;;;;;;;;4918566;29;20044;-75
2022/10/29 11:37:18;;;;;;;6.00;3.30;;;;;;;;;;4918631;29;20373;-77
2022/10/29 11:40:23;;;;;;;6.05;3.28;;;;;;;;;;4918851;29;20044;-76
2022/10/29 11:43:27;;;;;;;7.63;3.60;;;;;;;;;;4917747;29;20040;-77
2022/10/29 11:46:32;;;;;;;6.05;3.45;;;;;;;;;;4920253;29;20381;-76
2022/10/29 11:49:36;;;;;;;7.75;4.00;;;;;;;;;;4918083;29;20048;-78
2022/10/29 11:52:47;;;;;;;8.25;3.60;;;;;;;;;;4916852;29;20040;-75
2022/10/29 11:56:00;;;;;;;7.00;3.78;;;;;;;;;;4918861;29;20044;-75
2022/10/29 11:59:15;;;;;;;8.80;3.70;;;;;;;;;;4918145;29;20052;-76
2022/10/29 12:02:29;;;;;;;7.43;3.78;;;;;;;;;;4919204;29;20044;-75
2022/10/29 12:05:50;;;;;;;6.22;3.30;;;;;;;;;;4917938;29;20732;-76
2022/10/29 12:08:54;;;;;;;5.75;3.10;;;;;;;;;;4918056;29;20043;-75
2022/10/29 12:11:58;;;;;;;6.03;3.00;;;;;;;;;;4917930;29;20040;-74
2022/10/29 12:15:12;;;;;;;20.77;4.95;;;;;;;;;;4917229;29;20052;-75
2022/10/29 12:18:24;;;;;;;10.30;3.97;;;;;;;;;;4907030;29;20055;-76
2022/10/29 12:21:32;;;;;;;8.23;3.42;;;;;;;;;;4919188;29;20188;-75
2022/10/29 12:24:55;;;;;;;7.97;3.30;;;;;;;;;;4917430;29;20044;-75
2022/10/29 12:28:06;;;;;;;10.70;3.25;;;;;;;;;;4905548;29;20370;-75
2022/10/29 12:31:16;;;;;;;5.88;3.53;;;;;;;;;;4917942;29;20408;-74
2022/10/29 12:34:20;;;;;;;6.50;3.17;;;;;;;;;;4917616;29;20036;-76
2022/10/29 12:37:45;;;;;;;5.63;2.70;;;;;;;;;;4917803;29;20044;-75
2022/10/29 12:40:52;;;;;;;4.78;2.75;;;;;;;;;;4916116;29;20044;-74
2022/10/29 12:44:09;;;;;;;10.00;3.25;;;;;;;;;;4917568;29;20044;-75
2022/10/29 12:47:17;;;;;;;5.95;3.10;;;;;;;;;;4917797;29;20058;-75
2022/10/29 12:50:39;;;;;;;10.43;3.20;;;;;;;;;;4919031;29;20052;-75
2022/10/29 12:54:12;;;;;;;4.80;2.80;;;;;;;;;;4917710;29;20360;-74
2022/10/29 12:57:17;;;;;;;6.78;2.70;;;;;;;;;;4904412;29;20048;-75
2022/10/29 13:00:30;;;;;;;9.32;3.08;;;;;;;;;;4917146;29;20377;-75
2022/10/29 13:03:53;;;;;;;5.22;2.95;;;;;;;;;;4917573;29;20365;-74
2022/10/29 13:07:03;;;;;;;5.32;2.58;;;;;;;;;;4918689;29;20040;-77
2022/10/29 13:10:28;;;;;;;10.43;3.23;;;;;;;;;;4916167;29;20036;-75
2022/10/29 13:13:36;;;;;;;7.28;2.95;;;;;;;;;;4917376;29;20277;-76
2022/10/29 13:16:41;;;;;;;5.07;2.65;;;;;;;;;;4918355;29;20040;-74
2022/10/29 13:19:54;;;;;;;7.25;2.88;;;;;;;;;;4916456;29;20048;-76
2022/10/29 13:22:59;;;;;;;9.05;3.25;;;;;;;;;;4916973;29;20473;-77
2022/10/29 13:26:07;;;;;;;6.22;2.83;;;;;;;;;;4916889;29;20040;-78
2022/10/29 13:29:11;;;;;;;6.97;3.38;;;;;;;;;;4916453;29;20036;-76
2022/10/29 13:32:28;;;;;;;10.32;3.30;;;;;;;;;;4916528;29;20040;-76
2022/10/29 13:35:33;;;;;;;10.00;3.50;;;;;;;;;;4916278;29;20604;-76
2022/10/29 13:38:49;;;;;;;5.38;3.15;;;;;;;;;;4916999;29;20059;-75
2022/10/29 13:41:54;;;;;;;4.75;2.67;;;;;;;;;;4916853;29;20036;-76
2022/10/29 13:44:58;;;;;;;6.57;3.20;;;;;;;;;;4917475;29;20048;-77
2022/10/29 13:48:41;;;;;;;5.68;2.72;;;;;;;;;;4918093;29;20540;-78
2022/10/29 13:51:54;;;;;;;5.65;2.70;;;;;;;;;;4916235;29;20036;-76
2022/10/29 13:55:05;;;;;;;14.93;3.53;;;;;;;;;;4913645;29;20040;-75
2022/10/29 13:58:10;;;;;;;10.18;3.55;;;;;;;;;;4916002;29;20400;-77
2022/10/29 14:01:16;;;;;;;13.18;3.53;;;;;;;;;;4916685;29;20047;-77
2022/10/29 14:04:26;;;;;;;8.60;3.15;;;;;;;;;;4916907;29;20051;-75
2022/10/29 14:07:34;;;;;;;7.55;3.08;;;;;;;;;;4916540;29;20040;-77
2022/10/29 14:10:38;;;;;;;9.00;3.20;;;;;;;;;;4915052;29;20554;-77
2022/10/29 14:13:43;;;;;;;9.88;3.13;;;;;;;;;;4915184;29;20044;-79
2022/10/29 14:16:47;;;;;;;13.70;2.90;;;;;;;;;;4921110;29;20033;-76
2022/10/29 14:19:52;;;;;;;7.72;3.35;;;;;;;;;;4919250;29;20051;-76
2022/10/29 14:22:57;;;;;;;5.63;3.38;;;;;;;;;;4919289;29;20361;-76
2022/10/29 14:26:02;;;;;;;5.75;3.17;;;;;;;;;;4918923;29;20040;-77
2022/10/29 14:29:22;;;;;;;6.38;3.20;;;;;;;;;;4919429;29;20518;-76
2022/10/29 14:32:26;;;;;;;7.28;2.78;;;;;;;;;;4919200;29;20040;-77
2022/10/29 14:35:31;;;;;;;14.57;3.78;;;;;;;;;;4918734;29;20032;-77
2022/10/29 14:38:44;;;;;;;9.00;2.83;;;;;;;;;;4918873;29;20055;-76
2022/10/29 14:41:49;;;;;;;8.35;2.90;;;;;;;;;;4920750;29;20036;-80
2022/10/29 14:44:56;;;;;;;8.57;3.17;;;;;;;;;;4921005;29;20036;-77
2022/10/29 14:48:02;;;;;;;9.57;3.53;;;;;;;;;;4920028;29;20036;-77
2022/10/29 14:51:06;;;;;;;8.80;3.40;;;;;;;;;;4920719;29;20048;-76
2022/10/29 14:54:15;;;;;;;11.65;3.78;;;;;;;;;;4920188;29;20040;-76
2022/10/29 14:57:22;;;;;;;12.13;3.67;;;;;;;;;;4918831;29;20047;-76
2022/10/29 15:00:28;;;;;;;6.35;2.97;;;;;;;;;;4918786;29;20055;-76
2022/10/29 15:03:34;;;;;;;6.25;2.80;;;;;;;;;;4918968;29;20338;-76
2022/10/29 15:06:38;;;;;;;7.80;3.25;;;;;;;;;;4918382;29;20124;-77
2022/10/29 15:09:45;;;;;;;10.07;3.30;;;;;;;;;;4918691;29;20040;-76
2022/10/29 15:12:51;;;;;;;8.77;3.50;;;;;;;;;;4917075;29;20051;-78
2022/10/29 15:15:57;;;;;;;7.45;3.30;;;;;;;;;;4920354;29;20040;-76
2022/10/29 15:19:02;;;;;;;10.40;3.45;;;;;;;;;;4919534;29;20188;-77
2022/10/29 15:22:10;;;;;;;6.85;3.28;;;;;;;;;;4918258;29;20047;-77
2022/10/29 15:25:20;;;;;;;12.90;3.20;;;;;;;;;;4920631;29;20040;-77
2022/10/29 15:28:25;;;;;;;7.28;3.22;;;;;;;;;;4918721;29;20384;-76
2022/10/29 15:31:29;;;;;;;16.25;3.28;;;;;;;;;;4918266;29;20043;-76
2022/10/29 15:34:35;;;;;;;5.95;3.17;;;;;;;;;;4918306;29;20047;-78
2022/10/29 15:37:43;;;;;;;9.88;3.72;;;;;;;;;;4917067;29;20444;-75
2022/10/29 15:40:53;;;;;;;10.48;3.38;;;;;;;;;;4918261;29;20511;-77
2022/10/29 15:43:58;;;;;;;13.73;3.65;;;;;;;;;;4917637;29;20407;-76
2022/10/29 15:47:18;;;;;;;8.15;3.22;;;;;;;;;;4917585;29;20055;-77
2022/10/29 15:50:23;;;;;;;10.98;3.83;;;;;;;;;;4916557;29;20048;-75
2022/10/29 15:53:27;;;;;;;9.98;4.35;;;;;;;;;;4917120;29;20051;-76
2022/10/29 15:56:31;;;;;;;5.50;2.70;;;;;;;;;;4917138;29;20044;-77
2022/10/29 15:59:38;;;;;;;9.48;3.65;;;;;;;;;;4916974;29;20376;-76
2022/10/29 16:02:42;;;;;;;13.05;5.85;;;;;;;;;;4916783;29;20040;-77
2022/10/29 16:05:48;;;;;;;12.18;5.20;;;;;;;;;;4917048;29;20047;-76
2022/10/29 16:08:54;;;;;;;14.43;6.43;;;;;;;;;;4917566;29;20047;-77
2022/10/29 16:11:58;;;;;;;10.50;5.38;;;;;;;;;;4916975;29;20051;-78
2022/10/29 16:15:02;;;;;;;10.02;5.65;;;;;;;;;;4916848;29;20047;-76
2022/10/29 16:18:07;;;;;;;26.67;5.78;;;;;;;;;;4916791;29;20051;-78
2022/10/29 16:21:16;;;;;;;14.90;6.00;;;;;;;;;;4916836;29;20043;-79
2022/10/29 16:24:20;;;;;;;11.98;6.07;;;;;;;;;;4918319;29;20039;-78
2022/10/29 16:27:25;;;;;;;15.75;4.85;;;;;;;;;;4917620;29;20051;-76
2022/10/29 16:30:29;;;;;;;14.45;5.03;;;;;;;;;;4917251;29;20388;-78
2022/10/29 16:33:34;;;;;;;19.73;6.03;;;;;;;;;;4916710;29;20060;-68
2022/10/29 16:36:38;;;;;;;20.63;5.32;;;;;;;;;;4916592;29;20047;-66
2022/10/29 16:39:43;;;;;;;20.58;5.82;;;;;;;;;;4915424;29;20067;-69
2022/10/29 16:42:47;;;;;;;14.63;5.32;;;;;;;;;;4916210;29;20060;-69
2022/10/29 16:45:52;;;;;;;23.13;5.90;;;;;;;;;;4915363;29;20155;-67
2022/10/29 16:48:56;;;;;;;16.52;7.15;;;;;;;;;;4915877;29;20054;-68
2022/10/29 16:52:00;;;;;;;22.40;6.32;;;;;;;;;;4916042;29;20059;-67
2022/10/29 16:55:05;;;;;;;17.73;6.38;;;;;;;;;;4916270;29;20047;-68
2022/10/29 16:58:13;;;;;;;20.70;6.88;;;;;;;;;;4915522;29;20527;-68
2022/10/29 17:01:17;;;;;;;28.20;7.95;;;;;;;;;;4915506;29;20072;-68
2022/10/29 17:04:22;;;;;;;27.15;10.38;;;;;;;;;;4915612;29;20047;-68
2022/10/29 17:07:26;;;;;;;27.17;9.13;;;;;;;;;;4916071;29;20396;-68
2022/10/29 17:10:30;;;;;;;26.50;11.88;;;;;;;;;;4915427;29;20059;-67
2022/10/29 17:13:35;;;;;;;24.63;11.63;;;;;;;;;;4915797;29;20043;-68
2022/10/29 17:16:39;;;;;;;22.92;11.70;;;;;;;;;;4915679;29;20055;-67
2022/10/29 17:19:44;;;;;;;27.90;11.65;;;;;;;;;;4914410;29;20055;-67
2022/10/29 17:22:48;;;;;;;47.55;24.88;;;;;;;;;;4903920;29;20051;-68
2022/10/29 17:25:53;;;;;;;69.82;30.80;;;;;;;;;;4915648;29;20055;-68
2022/10/29 17:28:57;;;;;;;44.53;14.25;;;;;;;;;;4914425;29;20043;-66
2022/10/29 17:32:02;;;;;;;23.08;12.43;;;;;;;;;;4915367;29;20047;-67
2022/10/29 17:35:06;;;;;;;31.30;12.05;;;;;;;;;;4914530;29;20039;-67
2022/10/29 17:38:10;;;;;;;35.28;14.32;;;;;;;;;;4915197;29;20051;-67
2022/10/29 17:41:14;;;;;;;38.88;14.80;;;;;;;;;;4903628;29;20051;-66
2022/10/29 17:44:18;;;;;;;43.28;15.60;;;;;;;;;;4914290;29;20519;-66
2022/10/29 17:47:23;;;;;;;37.97;18.20;;;;;;;;;;4915114;29;20046;-66
2022/10/29 17:50:27;;;;;;;41.65;18.60;;;;;;;;;;4913219;29;20051;-67
2022/10/29 17:53:31;;;;;;;43.33;21.52;;;;;;;;;;4914716;29;20043;-68
2022/10/29 17:56:36;;;;;;;46.15;21.38;;;;;;;;;;4914135;29;20404;-68
2022/10/29 17:59:40;;;;;;;42.75;17.92;;;;;;;;;;4914647;29;20518;-68
2022/10/29 18:02:44;;;;;;;37.40;17.95;;;;;;;;;;4914838;29;20043;-67
2022/10/29 18:05:49;;;;;;;41.55;20.52;;;;;;;;;;4914659;29;20071;-67
2022/10/29 18:08:53;;;;;;;36.15;17.38;;;;;;;;;;4915009;29;20392;-68
2022/10/29 18:11:57;;;;;;;42.42;18.48;;;;;;;;;;4914841;29;20056;-66
2022/10/29 18:15:02;;;;;;;38.30;14.68;;;;;;;;;;4914689;29;20043;-68
2022/10/29 18:18:06;;;;;;;43.40;17.08;;;;;;;;;;4914852;29;20063;-66
2022/10/29 18:21:15;;;;;;;37.47;17.02;;;;;;;;;;4914954;29;20051;-67
2022/10/29 18:24:21;;;;;;;45.38;17.50;;;;;;;;;;4914866;29;20051;-68
2022/10/29 18:27:25;;;;;;;40.88;22.38;;;;;;;;;;4915069;29;20055;-68